Time;durP1;ratioP1;P1;durP2;ratioP2;P2;SDS_P1;SDS_P2;PMS_P1;PMS_P2;Temp;Humidity;BMP_temperature;BMP_pressure;BME280_temperature;BME280_humidity;BME280_pressure;Samples;Min_cycle;Max_cycle;Signal;HPM_P1;HPM_P2
2022/09/29 00:00:12;;;;;;;23.60;15.18;;;;;;;;;;5034224;28;20032;-71
2022/09/29 00:02:38;;;;;;;23.77;16.05;;;;;;;;;;5037158;28;20029;-71
2022/09/29 00:05:04;;;;;;;28.48;16.35;;;;;;;;;;5034887;28;20079;-70
2022/09/29 00:07:33;;;;;;;26.40;16.02;;;;;;;;;;5031913;28;20082;-69
2022/09/29 00:09:59;;;;;;;28.23;16.75;;;;;;;;;;5014439;28;20032;-70
2022/09/29 00:12:25;;;;;;;26.85;15.27;;;;;;;;;;5031732;28;20025;-71
2022/09/29 00:14:51;;;;;;;21.55;14.65;;;;;;;;;;5055219;23;20123;-77
2022/09/29 00:17:17;;;;;;;26.13;15.75;;;;;;;;;;5041392;28;20013;-74
2022/09/29 00:19:43;;;;;;;24.35;15.90;;;;;;;;;;5050700;28;20034;-75
2022/09/29 00:22:09;;;;;;;26.55;15.85;;;;;;;;;;5039443;28;20040;-77
2022/09/29 00:24:35;;;;;;;23.00;16.08;;;;;;;;;;5034349;28;20025;-76
2022/09/29 00:27:01;;;;;;;23.83;15.35;;;;;;;;;;5020725;28;20060;-75
2022/09/29 00:29:27;;;;;;;26.17;16.05;;;;;;;;;;5039875;28;20030;-75
2022/09/29 00:31:53;;;;;;;24.83;15.98;;;;;;;;;;5019853;28;20444;-76
2022/09/29 00:34:20;;;;;;;27.48;15.50;;;;;;;;;;5035003;28;20107;-76
2022/09/29 00:36:46;;;;;;;26.05;16.15;;;;;;;;;;5035786;28;20040;-77
2022/09/29 00:39:12;;;;;;;31.02;16.27;;;;;;;;;;5021097;28;20097;-80
2022/09/29 00:41:38;;;;;;;26.98;16.17;;;;;;;;;;5036199;28;20029;-77
2022/09/29 00:44:05;;;;;;;27.58;16.95;;;;;;;;;;5036210;28;20033;-77
2022/09/29 00:46:51;;;;;;;22.83;15.68;;;;;;;;;;5035769;28;20085;-76
2022/09/29 00:49:17;;;;;;;25.10;15.82;;;;;;;;;;5035899;28;20543;-77
2022/09/29 00:51:45;;;;;;;26.50;16.55;;;;;;;;;;5035757;28;20029;-77
2022/09/29 00:54:11;;;;;;;25.15;16.08;;;;;;;;;;5037064;28;20021;-76
2022/09/29 00:56:38;;;;;;;23.73;14.90;;;;;;;;;;5040665;28;20489;-77
2022/09/29 00:59:07;;;;;;;24.30;14.98;;;;;;;;;;5039877;28;20025;-75
2022/09/29 01:01:33;;;;;;;24.88;15.13;;;;;;;;;;5021920;28;20022;-75
2022/09/29 01:04:05;;;;;;;25.23;16.15;;;;;;;;;;5036829;28;20029;-77
2022/09/29 01:06:34;;;;;;;27.15;15.77;;;;;;;;;;5033544;28;20030;-77
2022/09/29 01:09:01;;;;;;;23.85;15.13;;;;;;;;;;5034186;28;20064;-76
2022/09/29 01:11:29;;;;;;;23.80;14.80;;;;;;;;;;5015856;28;20080;-76
2022/09/29 01:13:57;;;;;;;21.98;14.65;;;;;;;;;;5034438;28;20018;-78
2022/09/29 01:16:23;;;;;;;22.92;15.00;;;;;;;;;;5017163;28;20486;-76
2022/09/29 01:18:51;;;;;;;32.10;16.13;;;;;;;;;;5033641;28;20056;-77
2022/09/29 01:21:20;;;;;;;30.00;17.10;;;;;;;;;;5016428;28;20025;-76
2022/09/29 01:23:55;;;;;;;24.17;16.33;;;;;;;;;;5032754;28;20053;-76
2022/09/29 01:26:29;;;;;;;26.15;16.65;;;;;;;;;;5018202;28;20440;-77
2022/09/29 01:29:07;;;;;;;20.30;12.38;;;;;;;;;;5018496;28;20029;-76
2022/09/29 01:31:39;;;;;;;26.95;16.02;;;;;;;;;;5036959;28;20033;-76
2022/09/29 01:34:05;;;;;;;27.98;16.77;;;;;;;;;;5038913;28;20025;-77
2022/09/29 01:36:41;;;;;;;24.40;14.75;;;;;;;;;;5036879;28;20036;-77
2022/09/29 01:39:13;;;;;;;25.00;15.60;;;;;;;;;;5038232;28;20033;-74
2022/09/29 01:41:48;;;;;;;24.88;14.45;;;;;;;;;;5019468;28;20489;-76
2022/09/29 01:44:33;;;;;;;23.67;14.57;;;;;;;;;;5035971;28;20029;-78
2022/09/29 01:47:02;;;;;;;27.15;14.02;;;;;;;;;;5037394;28;20032;-76
2022/09/29 01:49:30;;;;;;;25.83;15.30;;;;;;;;;;5036343;28;20090;-77
2022/09/29 01:52:02;;;;;;;22.65;15.07;;;;;;;;;;5036185;28;20037;-77
2022/09/29 01:54:32;;;;;;;24.05;14.68;;;;;;;;;;5039664;28;20033;-76
2022/09/29 01:57:06;;;;;;;27.92;15.95;;;;;;;;;;5041983;28;20029;-76
2022/09/29 01:59:37;;;;;;;25.02;15.88;;;;;;;;;;5042272;28;20451;-76
2022/09/29 02:02:07;;;;;;;24.75;14.38;;;;;;;;;;5023478;28;20386;-75
2022/09/29 02:04:36;;;;;;;23.15;14.23;;;;;;;;;;5030377;28;20029;-76
2022/09/29 02:07:06;;;;;;;25.70;14.95;;;;;;;;;;5040772;28;20037;-77
2022/09/29 02:09:35;;;;;;;23.55;15.05;;;;;;;;;;5037102;28;20096;-75
2022/09/29 02:12:03;;;;;;;26.40;14.85;;;;;;;;;;5017563;28;20185;-74
2022/09/29 02:14:32;;;;;;;24.67;14.93;;;;;;;;;;5035612;28;20507;-77
2022/09/29 02:17:06;;;;;;;26.20;16.23;;;;;;;;;;5032639;28;20474;-76
2022/09/29 02:19:35;;;;;;;26.60;15.20;;;;;;;;;;5035480;28;20028;-76
2022/09/29 02:22:00;;;;;;;20.23;13.52;;;;;;;;;;5035434;28;20040;-76
2022/09/29 02:24:26;;;;;;;22.58;13.75;;;;;;;;;;5017363;28;20029;-76
2022/09/29 02:26:52;;;;;;;25.98;14.98;;;;;;;;;;5034841;28;20108;-76
2022/09/29 02:29:19;;;;;;;22.40;14.18;;;;;;;;;;5034792;28;20033;-76
2022/09/29 02:31:45;;;;;;;22.55;13.93;;;;;;;;;;5036139;28;20410;-77
2022/09/29 02:34:12;;;;;;;22.88;13.55;;;;;;;;;;5036060;28;20095;-75
2022/09/29 02:36:47;;;;;;;25.50;13.45;;;;;;;;;;5035546;28;20029;-76
2022/09/29 02:39:19;;;;;;;26.00;14.52;;;;;;;;;;5035645;28;20021;-76
2022/09/29 02:41:48;;;;;;;25.20;15.23;;;;;;;;;;5035253;28;20029;-77
2022/09/29 02:44:26;;;;;;;25.27;14.25;;;;;;;;;;5035242;28;20033;-76
2022/09/29 02:47:11;;;;;;;22.25;13.32;;;;;;;;;;5016851;28;20113;-76
2022/09/29 02:49:43;;;;;;;22.80;13.10;;;;;;;;;;5034723;28;20033;-75
2022/09/29 02:52:17;;;;;;;21.08;13.20;;;;;;;;;;5034409;28;20033;-76
2022/09/29 02:55:02;;;;;;;22.58;14.40;;;;;;;;;;5036073;28;20032;-77
2022/09/29 02:57:32;;;;;;;20.70;14.25;;;;;;;;;;5034613;28;20026;-76
2022/09/29 03:00:10;;;;;;;20.73;14.27;;;;;;;;;;5034281;28;20468;-75
2022/09/29 03:02:37;;;;;;;22.02;13.38;;;;;;;;;;5034888;28;20029;-78
2022/09/29 03:05:09;;;;;;;18.30;13.27;;;;;;;;;;5034918;28;20179;-75
2022/09/29 03:07:35;;;;;;;27.23;13.25;;;;;;;;;;5018039;28;20029;-75
2022/09/29 03:10:01;;;;;;;20.38;12.75;;;;;;;;;;5036560;28;20033;-77
2022/09/29 03:12:28;;;;;;;22.20;13.13;;;;;;;;;;5034480;28;20052;-76
2022/09/29 03:14:54;;;;;;;26.95;12.45;;;;;;;;;;5015248;28;20034;-79
2022/09/29 03:17:20;;;;;;;24.35;14.30;;;;;;;;;;5036081;28;20033;-77
2022/09/29 03:19:46;;;;;;;22.17;13.10;;;;;;;;;;5016829;28;20057;-75
2022/09/29 03:22:12;;;;;;;20.15;13.00;;;;;;;;;;5035054;28;20037;-76
2022/09/29 03:24:38;;;;;;;26.42;13.43;;;;;;;;;;5036054;28;20028;-76
2022/09/29 03:27:04;;;;;;;24.52;14.65;;;;;;;;;;5034904;28;20490;-77
2022/09/29 03:29:30;;;;;;;22.95;13.80;;;;;;;;;;5017171;28;20535;-77
2022/09/29 03:31:57;;;;;;;22.88;14.10;;;;;;;;;;5035740;28;20025;-76
2022/09/29 03:34:23;;;;;;;22.90;13.02;;;;;;;;;;5033791;28;20029;-77
2022/09/29 03:36:49;;;;;;;28.85;14.75;;;;;;;;;;5033884;28;20030;-75
2022/09/29 03:39:15;;;;;;;19.42;13.77;;;;;;;;;;5033314;28;20111;-77
2022/09/29 03:41:41;;;;;;;19.98;14.05;;;;;;;;;;5033156;28;20040;-76
2022/09/29 03:44:07;;;;;;;23.83;14.93;;;;;;;;;;5016087;28;20025;-76
2022/09/29 03:46:33;;;;;;;27.77;17.23;;;;;;;;;;5032935;28;20108;-76
2022/09/29 03:48:59;;;;;;;24.42;16.50;;;;;;;;;;5037268;28;20560;-75
2022/09/29 03:51:25;;;;;;;25.23;15.30;;;;;;;;;;5021332;28;20029;-75
2022/09/29 03:53:51;;;;;;;23.88;15.23;;;;;;;;;;5039365;28;20036;-77
2022/09/29 03:56:17;;;;;;;23.52;14.38;;;;;;;;;;5035829;28;20026;-76
2022/09/29 03:58:43;;;;;;;25.25;15.02;;;;;;;;;;5041680;28;20001;-76
2022/09/29 04:01:09;;;;;;;19.60;13.00;;;;;;;;;;5035611;28;20063;-77
2022/09/29 04:03:35;;;;;;;22.88;14.00;;;;;;;;;;5035534;28;20025;-77
2022/09/29 04:06:01;;;;;;;23.63;14.77;;;;;;;;;;5037153;28;20099;-76
2022/09/29 04:08:27;;;;;;;24.45;15.13;;;;;;;;;;5053194;28;20026;-76
2022/09/29 04:10:52;;;;;;;23.65;14.00;;;;;;;;;;5047373;28;20121;-76
2022/09/29 04:13:20;;;;;;;24.67;14.50;;;;;;;;;;5046788;28;20037;-79
2022/09/29 04:15:46;;;;;;;26.17;14.77;;;;;;;;;;5047106;28;20029;-77
2022/09/29 04:18:12;;;;;;;26.10;16.20;;;;;;;;;;5043151;28;20060;-77
2022/09/29 04:20:38;;;;;;;29.58;14.60;;;;;;;;;;5031603;28;20092;-78
2022/09/29 04:23:05;;;;;;;28.73;15.88;;;;;;;;;;5048895;28;20029;-77
2022/09/29 04:25:31;;;;;;;25.55;15.70;;;;;;;;;;5041952;28;20017;-78
2022/09/29 04:27:57;;;;;;;28.23;16.90;;;;;;;;;;5045162;28;20036;-76
2022/09/29 04:30:23;;;;;;;26.00;15.75;;;;;;;;;;5036275;28;20029;-76
2022/09/29 04:32:49;;;;;;;29.60;15.85;;;;;;;;;;5020825;28;20025;-78
2022/09/29 04:35:15;;;;;;;25.02;15.38;;;;;;;;;;5039102;28;20040;-77
2022/09/29 04:37:41;;;;;;;21.90;14.40;;;;;;;;;;5036727;28;20022;-76
2022/09/29 04:40:07;;;;;;;29.90;15.68;;;;;;;;;;5039384;28;20108;-77
2022/09/29 04:42:33;;;;;;;25.88;16.23;;;;;;;;;;5037917;28;20029;-76
2022/09/29 04:44:59;;;;;;;31.92;18.00;;;;;;;;;;5039462;28;20508;-76
2022/09/29 04:47:25;;;;;;;30.63;17.95;;;;;;;;;;5040411;28;20048;-77
2022/09/29 04:49:51;;;;;;;28.65;19.08;;;;;;;;;;5038888;28;20217;-77
2022/09/29 04:52:17;;;;;;;29.35;19.20;;;;;;;;;;5036115;28;20029;-77
2022/09/29 04:54:43;;;;;;;37.28;20.70;;;;;;;;;;5036878;28;20096;-78
2022/09/29 04:57:09;;;;;;;29.35;18.58;;;;;;;;;;5035897;28;20100;-78
2022/09/29 04:59:35;;;;;;;34.65;19.70;;;;;;;;;;5038720;28;20075;-78
2022/09/29 05:02:01;;;;;;;30.30;19.50;;;;;;;;;;5027013;28;20088;-78
2022/09/29 05:04:27;;;;;;;38.75;21.25;;;;;;;;;;5049510;28;20054;-76
2022/09/29 05:06:53;;;;;;;34.67;19.75;;;;;;;;;;5047060;28;20037;-77
2022/09/29 05:09:19;;;;;;;37.72;20.20;;;;;;;;;;5046134;28;20100;-77
2022/09/29 05:11:45;;;;;;;33.75;21.10;;;;;;;;;;5040133;28;20029;-78
2022/09/29 05:14:11;;;;;;;38.90;20.90;;;;;;;;;;5038964;28;20398;-77
2022/09/29 05:16:37;;;;;;;31.55;20.42;;;;;;;;;;5041091;28;20055;-79
2022/09/29 05:19:03;;;;;;;41.25;20.50;;;;;;;;;;5043220;28;20475;-78
2022/09/29 05:21:29;;;;;;;37.55;21.25;;;;;;;;;;5024720;28;20037;-77
2022/09/29 05:23:55;;;;;;;38.45;21.45;;;;;;;;;;5040903;28;20393;-77
2022/09/29 05:26:21;;;;;;;35.47;21.55;;;;;;;;;;5040398;28;20101;-77
2022/09/29 05:28:47;;;;;;;36.78;21.42;;;;;;;;;;5045446;28;20037;-77
2022/09/29 05:31:14;;;;;;;39.53;22.33;;;;;;;;;;5042330;28;20083;-77
2022/09/29 05:33:40;;;;;;;39.40;22.02;;;;;;;;;;5045481;28;20340;-77
2022/09/29 05:36:07;;;;;;;40.72;24.40;;;;;;;;;;5041183;28;20052;-77
2022/09/29 05:38:34;;;;;;;39.85;22.95;;;;;;;;;;5045121;28;20022;-80
2022/09/29 05:41:03;;;;;;;32.83;21.48;;;;;;;;;;5047196;28;20033;-79
2022/09/29 05:43:29;;;;;;;37.45;22.45;;;;;;;;;;5044273;28;20021;-79
2022/09/29 05:46:02;;;;;;;38.13;22.52;;;;;;;;;;5046114;28;20022;-82
2022/09/29 05:48:31;;;;;;;36.15;21.58;;;;;;;;;;5046625;28;20025;-79
2022/09/29 05:50:57;;;;;;;40.85;21.77;;;;;;;;;;5048111;28;20065;-77
2022/09/29 05:53:24;;;;;;;32.60;20.80;;;;;;;;;;5046681;28;20025;-80
2022/09/29 05:55:50;;;;;;;36.45;22.33;;;;;;;;;;5046792;28;20371;-78
2022/09/29 05:58:16;;;;;;;37.35;22.15;;;;;;;;;;5046828;28;20057;-79
2022/09/29 06:00:42;;;;;;;38.60;22.73;;;;;;;;;;5043124;28;20032;-78
2022/09/29 06:03:08;;;;;;;42.83;22.90;;;;;;;;;;5043476;28;20535;-78
2022/09/29 06:05:37;;;;;;;39.58;23.95;;;;;;;;;;5044765;28;20077;-78
2022/09/29 06:08:04;;;;;;;46.08;24.60;;;;;;;;;;5046001;28;20056;-79
2022/09/29 06:10:30;;;;;;;44.92;24.30;;;;;;;;;;5044871;28;20091;-78
2022/09/29 06:12:56;;;;;;;42.03;24.58;;;;;;;;;;5045849;28;20034;-78
2022/09/29 06:15:22;;;;;;;41.97;23.45;;;;;;;;;;5061388;23;20041;-75
2022/09/29 06:17:54;;;;;;;39.80;23.45;;;;;;;;;;5033453;28;20025;-74
2022/09/29 06:20:20;;;;;;;36.40;23.77;;;;;;;;;;5035275;28;20386;-73
2022/09/29 06:22:47;;;;;;;42.22;25.50;;;;;;;;;;5034769;28;20030;-74
2022/09/29 06:25:13;;;;;;;37.95;24.58;;;;;;;;;;5035059;28;20091;-74
2022/09/29 06:27:39;;;;;;;39.80;24.77;;;;;;;;;;5034427;28;20029;-73
2022/09/29 06:30:05;;;;;;;39.30;24.83;;;;;;;;;;5034153;28;20033;-73
2022/09/29 06:32:33;;;;;;;37.88;24.42;;;;;;;;;;5034498;28;20057;-74
2022/09/29 06:37:45;;;;;;;43.25;24.63;;;;;;;;;;5036017;28;20171;-74
2022/09/29 06:40:11;;;;;;;44.17;25.95;;;;;;;;;;5039640;28;20017;-76
2022/09/29 06:42:37;;;;;;;40.78;25.15;;;;;;;;;;5043916;28;20044;-76
2022/09/29 06:45:04;;;;;;;44.78;26.20;;;;;;;;;;5033917;28;20434;-77
2022/09/29 06:47:30;;;;;;;39.25;25.02;;;;;;;;;;5033873;28;20394;-77
2022/09/29 06:50:00;;;;;;;41.17;25.95;;;;;;;;;;5033947;28;20053;-76
2022/09/29 06:52:26;;;;;;;39.58;24.50;;;;;;;;;;5034957;28;20021;-75
2022/09/29 06:54:52;;;;;;;38.47;23.80;;;;;;;;;;5034756;28;20025;-75
2022/09/29 06:57:18;;;;;;;38.80;24.95;;;;;;;;;;5015633;28;20025;-73
2022/09/29 06:59:44;;;;;;;35.45;24.23;;;;;;;;;;5033770;28;20368;-72
2022/09/29 07:02:11;;;;;;;38.22;24.23;;;;;;;;;;5034350;28;20078;-75
2022/09/29 07:04:37;;;;;;;34.78;24.27;;;;;;;;;;5018075;28;20030;-72
2022/09/29 07:07:03;;;;;;;33.78;22.73;;;;;;;;;;5017396;28;20029;-73
2022/09/29 07:09:29;;;;;;;35.47;22.40;;;;;;;;;;5034900;28;20398;-74
2022/09/29 07:11:55;;;;;;;37.90;22.17;;;;;;;;;;5037952;28;20033;-73
2022/09/29 07:14:23;;;;;;;36.97;22.20;;;;;;;;;;5039883;28;20017;-77
2022/09/29 07:16:49;;;;;;;36.05;22.02;;;;;;;;;;5046364;28;20033;-72
2022/09/29 07:19:16;;;;;;;30.70;20.30;;;;;;;;;;5027605;28;20022;-73
2022/09/29 07:21:42;;;;;;;35.25;20.77;;;;;;;;;;5021979;28;20501;-77
2022/09/29 07:24:09;;;;;;;31.92;21.20;;;;;;;;;;5039983;28;20053;-72
2022/09/29 07:26:35;;;;;;;30.08;19.38;;;;;;;;;;5017996;28;20033;-75
2022/09/29 07:29:01;;;;;;;30.02;20.27;;;;;;;;;;5038171;28;20539;-75
2022/09/29 07:31:27;;;;;;;29.95;20.45;;;;;;;;;;5026188;28;20040;-73
2022/09/29 07:33:55;;;;;;;27.00;19.10;;;;;;;;;;5043202;28;20049;-77
2022/09/29 07:36:22;;;;;;;29.88;19.77;;;;;;;;;;5027291;28;20022;-74
2022/09/29 07:38:50;;;;;;;31.73;20.02;;;;;;;;;;5040196;28;20032;-76
2022/09/29 07:41:17;;;;;;;34.28;20.48;;;;;;;;;;5021031;28;20029;-74
2022/09/29 07:43:43;;;;;;;35.08;19.42;;;;;;;;;;5037497;28;20359;-74
2022/09/29 07:46:09;;;;;;;29.48;18.73;;;;;;;;;;5020675;28;20029;-75
2022/09/29 07:48:36;;;;;;;33.92;20.63;;;;;;;;;;5038368;28;20056;-77
2022/09/29 07:51:20;;;;;;;31.25;20.13;;;;;;;;;;5036761;28;20079;-73
2022/09/29 07:53:47;;;;;;;29.23;19.00;;;;;;;;;;5033694;28;20536;-72
2022/09/29 07:56:17;;;;;;;33.90;22.27;;;;;;;;;;5032865;28;20025;-73
2022/09/29 07:58:44;;;;;;;27.42;18.95;;;;;;;;;;5039411;28;20390;-72
2022/09/29 08:01:12;;;;;;;27.48;19.00;;;;;;;;;;5025657;28;20029;-73
2022/09/29 08:03:39;;;;;;;26.30;17.88;;;;;;;;;;5017183;28;20102;-72
2022/09/29 08:06:06;;;;;;;26.92;19.27;;;;;;;;;;5035877;28;20040;-74
2022/09/29 08:08:34;;;;;;;27.38;18.02;;;;;;;;;;5035029;28;20029;-75
2022/09/29 08:11:06;;;;;;;27.52;19.15;;;;;;;;;;5034734;28;20060;-72
2022/09/29 08:13:33;;;;;;;26.67;18.73;;;;;;;;;;5037593;28;20036;-71
2022/09/29 08:16:00;;;;;;;27.92;18.75;;;;;;;;;;5031873;28;20393;-72
2022/09/29 08:18:27;;;;;;;28.48;18.25;;;;;;;;;;5033341;28;20017;-74
2022/09/29 08:20:53;;;;;;;30.50;18.88;;;;;;;;;;5017278;28;20029;-75
2022/09/29 08:23:19;;;;;;;29.48;18.27;;;;;;;;;;5032189;28;20079;-73
2022/09/29 08:25:45;;;;;;;25.00;18.20;;;;;;;;;;5031597;28;20040;-73
2022/09/29 08:28:12;;;;;;;26.40;18.63;;;;;;;;;;5034301;28;20033;-73
2022/09/29 08:30:38;;;;;;;27.58;18.13;;;;;;;;;;5032987;28;20107;-73
2022/09/29 08:33:07;;;;;;;26.40;18.08;;;;;;;;;;5016530;28;20517;-74
2022/09/29 08:35:33;;;;;;;27.80;19.08;;;;;;;;;;5035276;28;20025;-74
2022/09/29 08:37:59;;;;;;;25.23;18.02;;;;;;;;;;5032520;28;20146;-74
2022/09/29 08:40:29;;;;;;;29.65;18.70;;;;;;;;;;5033029;28;20021;-76
2022/09/29 08:43:03;;;;;;;30.13;18.00;;;;;;;;;;5032103;28;20043;-71
2022/09/29 08:45:35;;;;;;;26.05;17.90;;;;;;;;;;5034603;28;20025;-73
2022/09/29 08:48:05;;;;;;;23.85;16.98;;;;;;;;;;5017075;28;20032;-72
2022/09/29 08:50:35;;;;;;;30.67;18.30;;;;;;;;;;5032169;28;20032;-73
2022/09/29 08:53:05;;;;;;;24.92;16.88;;;;;;;;;;5033774;28;20026;-78
2022/09/29 08:55:31;;;;;;;23.35;16.58;;;;;;;;;;5034391;28;20029;-73
2022/09/29 08:57:58;;;;;;;40.03;20.92;;;;;;;;;;5010445;28;20037;-70
2022/09/29 09:00:30;;;;;;;21.63;15.95;;;;;;;;;;5034078;28;20022;-72
2022/09/29 09:02:58;;;;;;;21.20;15.82;;;;;;;;;;5036396;28;20388;-72
2022/09/29 09:05:30;;;;;;;22.13;15.52;;;;;;;;;;5032472;28;20037;-72
2022/09/29 09:08:05;;;;;;;23.35;15.15;;;;;;;;;;5031307;28;20018;-71
2022/09/29 09:10:32;;;;;;;20.42;15.10;;;;;;;;;;5032819;28;20072;-72
2022/09/29 09:13:04;;;;;;;26.35;15.02;;;;;;;;;;5039723;28;20025;-72
2022/09/29 09:15:29;;;;;;;19.88;14.50;;;;;;;;;;5037556;28;20494;-75
2022/09/29 09:18:07;;;;;;;25.38;14.40;;;;;;;;;;5037777;28;20101;-73
2022/09/29 09:20:39;;;;;;;20.25;13.23;;;;;;;;;;5022875;28;20025;-73
2022/09/29 09:23:20;;;;;;;19.52;13.40;;;;;;;;;;5039492;28;20108;-73
2022/09/29 09:25:52;;;;;;;17.67;13.05;;;;;;;;;;5045746;28;20025;-72
2022/09/29 09:28:20;;;;;;;18.85;13.43;;;;;;;;;;5049730;28;20017;-74
2022/09/29 09:30:46;;;;;;;21.17;12.07;;;;;;;;;;5052042;28;20024;-73
2022/09/29 09:33:18;;;;;;;21.83;13.57;;;;;;;;;;5053046;28;20077;-73
2022/09/29 09:35:48;;;;;;;17.27;12.80;;;;;;;;;;5055407;28;20037;-72
2022/09/29 09:38:21;;;;;;;19.08;12.30;;;;;;;;;;5034793;28;20025;-73
2022/09/29 09:40:49;;;;;;;18.67;12.52;;;;;;;;;;5037523;28;20028;-72
2022/09/29 09:43:19;;;;;;;20.33;12.55;;;;;;;;;;5031648;28;20083;-71
2022/09/29 09:45:48;;;;;;;16.60;11.80;;;;;;;;;;5014017;28;20053;-73
2022/09/29 09:48:20;;;;;;;17.40;11.43;;;;;;;;;;5035611;28;20025;-73
2022/09/29 09:50:48;;;;;;;92.20;38.60;;;;;;;;;;5020196;28;20079;-72
2022/09/29 09:53:35;;;;;;;24.58;15.18;;;;;;;;;;5022623;28;20107;-74
2022/09/29 09:56:21;;;;;;;15.43;11.38;;;;;;;;;;5018107;28;20057;-73
2022/09/29 09:58:50;;;;;;;16.02;11.23;;;;;;;;;;4996544;28;20040;-73
2022/09/29 10:01:16;;;;;;;16.63;10.35;;;;;;;;;;5035862;28;20535;-72
2022/09/29 10:03:42;;;;;;;13.82;10.63;;;;;;;;;;5016341;28;20026;-72
2022/09/29 10:06:08;;;;;;;17.48;11.23;;;;;;;;;;5018525;28;20098;-72
2022/09/29 10:08:38;;;;;;;16.80;11.23;;;;;;;;;;5034413;28;20025;-73
2022/09/29 10:11:08;;;;;;;14.63;11.25;;;;;;;;;;5018116;28;20022;-73
2022/09/29 10:13:34;;;;;;;22.73;12.07;;;;;;;;;;5035740;28;20478;-72
2022/09/29 10:16:08;;;;;;;18.23;12.10;;;;;;;;;;5017657;28;20029;-72
2022/09/29 10:18:42;;;;;;;17.35;11.38;;;;;;;;;;5037302;28;20025;-74
2022/09/29 10:21:28;;;;;;;18.10;12.38;;;;;;;;;;5037279;28;20032;-72
2022/09/29 10:24:03;;;;;;;18.05;12.18;;;;;;;;;;5024135;28;20041;-74
2022/09/29 10:26:29;;;;;;;;;;;;;;;;;;5019504;28;20052;-72
2022/09/29 10:29:00;;;;;;;19.60;13.43;;;;;;;;;;5035611;28;20337;-72
2022/09/29 10:31:26;;;;;;;20.15;13.48;;;;;;;;;;5034654;28;20029;-72
2022/09/29 10:33:56;;;;;;;19.15;12.50;;;;;;;;;;5034479;28;20026;-72
2022/09/29 10:36:23;;;;;;;16.95;12.70;;;;;;;;;;5034384;28;20029;-72
2022/09/29 10:38:50;;;;;;;17.75;13.32;;;;;;;;;;5034328;28;20033;-72
2022/09/29 10:41:18;;;;;;;21.13;12.98;;;;;;;;;;5034989;28;20474;-72
2022/09/29 10:43:44;;;;;;;19.52;13.88;;;;;;;;;;5039008;28;20028;-73
2022/09/29 10:46:29;;;;;;;20.58;14.18;;;;;;;;;;5018022;28;20115;-74
2022/09/29 10:49:10;;;;;;;21.13;14.40;;;;;;;;;;5037052;28;20022;-75
2022/09/29 10:51:36;;;;;;;21.88;14.60;;;;;;;;;;5034848;28;20033;-75
2022/09/29 10:54:09;;;;;;;20.25;13.85;;;;;;;;;;5020025;28;20356;-72
2022/09/29 10:56:35;;;;;;;20.75;14.13;;;;;;;;;;5033831;28;20360;-74
2022/09/29 10:59:02;;;;;;;21.25;13.55;;;;;;;;;;5034678;28;20025;-73
2022/09/29 11:01:29;;;;;;;20.00;14.40;;;;;;;;;;5035347;28;20122;-74
2022/09/29 11:04:02;;;;;;;20.98;14.02;;;;;;;;;;5035679;28;20036;-74
2022/09/29 11:06:33;;;;;;;24.13;13.98;;;;;;;;;;5036216;28;20025;-73
2022/09/29 11:08:59;;;;;;;22.70;14.73;;;;;;;;;;5035847;28;20026;-73
2022/09/29 11:11:34;;;;;;;23.35;13.60;;;;;;;;;;5035396;28;20022;-73
2022/09/29 11:14:00;;;;;;;19.40;12.48;;;;;;;;;;5036388;28;20202;-72
2022/09/29 11:16:31;;;;;;;20.90;14.13;;;;;;;;;;5034096;28;20088;-73
2022/09/29 11:19:02;;;;;;;22.65;14.13;;;;;;;;;;5033960;28;20079;-73
2022/09/29 11:21:39;;;;;;;19.92;13.57;;;;;;;;;;5036799;28;20102;-73
2022/09/29 11:24:09;;;;;;;21.92;13.15;;;;;;;;;;5034015;28;20100;-73
2022/09/29 11:26:43;;;;;;;18.15;11.85;;;;;;;;;;5033508;28;20167;-72
2022/09/29 11:29:20;;;;;;;23.98;14.35;;;;;;;;;;5034085;28;20057;-73
2022/09/29 11:32:19;;;;;;;19.58;12.77;;;;;;;;;;5036464;28;20040;-73
2022/09/29 11:35:04;;;;;;;17.52;10.93;;;;;;;;;;4991967;28;20042;-72
2022/09/29 11:37:42;;;;;;;17.17;11.70;;;;;;;;;;5037669;28;20101;-74
2022/09/29 11:40:11;;;;;;;18.20;11.60;;;;;;;;;;5033346;28;20386;-72
2022/09/29 11:42:43;;;;;;;15.27;10.30;;;;;;;;;;5034278;28;20487;-72
2022/09/29 11:45:17;;;;;;;16.65;10.20;;;;;;;;;;5015845;28;20036;-71
2022/09/29 11:48:01;;;;;;;24.85;12.07;;;;;;;;;;5036244;28;20036;-71
2022/09/29 11:50:31;;;;;;;16.85;11.95;;;;;;;;;;5034090;28;20441;-73
2022/09/29 11:53:06;;;;;;;15.90;11.05;;;;;;;;;;5035018;28;20056;-73
2022/09/29 11:55:44;;;;;;;19.60;12.23;;;;;;;;;;5037491;28;20021;-73
2022/09/29 11:58:22;;;;;;;18.42;10.65;;;;;;;;;;5043895;28;20048;-74
2022/09/29 12:00:53;;;;;;;17.10;10.85;;;;;;;;;;5026835;28;20033;-73
2022/09/29 12:03:21;;;;;;;16.48;10.90;;;;;;;;;;5056610;28;20100;-73
2022/09/29 12:05:53;;;;;;;17.95;10.70;;;;;;;;;;5056115;28;20032;-74
2022/09/29 12:08:19;;;;;;;20.42;11.55;;;;;;;;;;5050274;28;20056;-74
2022/09/29 12:10:55;;;;;;;22.25;12.68;;;;;;;;;;5035365;28;20029;-73
2022/09/29 12:13:40;;;;;;;20.77;11.77;;;;;;;;;;5048891;28;20034;-73
2022/09/29 12:16:11;;;;;;;13.02;8.18;;;;;;;;;;5040189;28;20033;-73
2022/09/29 12:18:43;;;;;;;11.05;6.40;;;;;;;;;;5037643;28;20026;-73
2022/09/29 12:21:10;;;;;;;12.38;6.90;;;;;;;;;;5017647;28;20120;-72
2022/09/29 12:23:38;;;;;;;11.23;6.60;;;;;;;;;;5034078;28;20037;-73
2022/09/29 12:26:08;;;;;;;10.57;6.75;;;;;;;;;;5017877;28;20484;-73
2022/09/29 12:28:37;;;;;;;7.85;5.43;;;;;;;;;;5033029;28;20021;-73
2022/09/29 12:31:07;;;;;;;9.68;5.20;;;;;;;;;;5032795;28;20018;-76
2022/09/29 12:33:54;;;;;;;8.75;6.25;;;;;;;;;;5038933;28;20470;-73
2022/09/29 12:36:45;;;;;;;9.50;5.47;;;;;;;;;;5032325;28;20037;-72
2022/09/29 12:39:23;;;;;;;7.45;5.60;;;;;;;;;;5013468;28;20025;-70
2022/09/29 12:41:52;;;;;;;9.15;5.55;;;;;;;;;;5032333;28;20098;-72
2022/09/29 12:44:28;;;;;;;10.07;5.75;;;;;;;;;;5031232;28;20083;-72
2022/09/29 12:46:59;;;;;;;13.32;6.00;;;;;;;;;;5031265;28;20017;-73
2022/09/29 12:49:43;;;;;;;8.05;6.00;;;;;;;;;;5031487;28;20037;-73
2022/09/29 12:52:15;;;;;;;10.07;6.72;;;;;;;;;;5031915;28;20030;-77
2022/09/29 12:54:43;;;;;;;9.43;6.22;;;;;;;;;;5027964;28;20014;-72
2022/09/29 12:57:14;;;;;;;11.85;6.80;;;;;;;;;;5031453;28;20029;-72
2022/09/29 12:59:39;;;;;;;8.48;5.75;;;;;;;;;;5033345;28;20040;-73
2022/09/29 13:02:26;;;;;;;12.13;7.13;;;;;;;;;;5031431;28;20486;-72
2022/09/29 13:05:04;;;;;;;13.52;6.82;;;;;;;;;;4981685;28;20033;-72
2022/09/29 13:07:30;;;;;;;14.20;8.00;;;;;;;;;;5031433;28;20459;-71
2022/09/29 13:10:04;;;;;;;15.15;8.30;;;;;;;;;;5013954;28;20029;-71
2022/09/29 13:12:42;;;;;;;10.85;7.28;;;;;;;;;;5030709;28;20072;-72
2022/09/29 13:15:08;;;;;;;12.32;8.43;;;;;;;;;;5030668;28;20033;-72
2022/09/29 13:17:43;;;;;;;13.57;9.15;;;;;;;;;;5031093;28;20033;-73
2022/09/29 13:20:24;;;;;;;14.50;9.10;;;;;;;;;;5032387;28;20414;-73
2022/09/29 13:23:10;;;;;;;12.23;8.88;;;;;;;;;;5037187;28;20036;-72
2022/09/29 13:25:56;;;;;;;13.07;9.60;;;;;;;;;;5020325;28;20109;-73
2022/09/29 13:28:25;;;;;;;16.40;10.57;;;;;;;;;;5039045;28;20032;-72
2022/09/29 13:30:52;;;;;;;14.25;10.30;;;;;;;;;;5037761;28;20052;-72
2022/09/29 13:33:25;;;;;;;15.20;11.23;;;;;;;;;;5035801;28;20175;-73
2022/09/29 13:35:52;;;;;;;18.63;12.07;;;;;;;;;;5034159;28;20462;-72
2022/09/29 13:38:22;;;;;;;16.35;10.85;;;;;;;;;;5034861;28;20225;-73
2022/09/29 13:41:21;;;;;;;14.05;11.00;;;;;;;;;;5020551;28;20367;-73
2022/09/29 13:43:49;;;;;;;15.18;11.07;;;;;;;;;;4991548;28;20118;-78
2022/09/29 13:46:31;;;;;;;15.98;10.45;;;;;;;;;;5034641;28;20034;-74
2022/09/29 13:49:12;;;;;;;18.50;12.82;;;;;;;;;;5036024;28;20116;-71
2022/09/29 13:51:41;;;;;;;14.88;11.90;;;;;;;;;;5022001;28;20044;-73
2022/09/29 13:54:27;;;;;;;17.38;12.90;;;;;;;;;;5035343;28;20028;-72
2022/09/29 13:56:59;;;;;;;17.38;13.05;;;;;;;;;;5034102;28;20113;-72
2022/09/29 13:59:27;;;;;;;19.80;13.73;;;;;;;;;;5035505;28;20025;-74
2022/09/29 14:01:53;;;;;;;15.85;12.48;;;;;;;;;;5039335;28;20028;-73
2022/09/29 14:04:33;;;;;;;21.15;13.40;;;;;;;;;;5038885;28;20482;-72
2022/09/29 14:07:01;;;;;;;15.80;11.15;;;;;;;;;;5034559;28;20041;-73
2022/09/29 14:09:32;;;;;;;19.85;12.38;;;;;;;;;;5037743;28;20033;-73
2022/09/29 14:12:01;;;;;;;23.10;13.55;;;;;;;;;;5004144;28;20022;-72
2022/09/29 14:15:00;;;;;;;18.85;13.40;;;;;;;;;;5022894;28;20025;-75
2022/09/29 14:17:31;;;;;;;21.75;14.05;;;;;;;;;;5033720;28;20041;-72
2022/09/29 14:20:05;;;;;;;19.63;12.55;;;;;;;;;;5036844;28;20078;-73
2022/09/29 14:22:38;;;;;;;22.60;14.00;;;;;;;;;;5022601;28;20022;-72
2022/09/29 14:25:10;;;;;;;18.52;13.73;;;;;;;;;;5035009;28;20108;-74
2022/09/29 14:27:56;;;;;;;17.55;13.10;;;;;;;;;;5036801;28;20026;-72
2022/09/29 14:30:34;;;;;;;21.52;14.35;;;;;;;;;;5038256;28;20479;-72
2022/09/29 14:33:09;;;;;;;20.13;13.98;;;;;;;;;;5037105;28;20128;-73
2022/09/29 14:35:43;;;;;;;24.05;14.32;;;;;;;;;;5033345;28;20029;-73